Time;durP1;ratioP1;P1;durP2;ratioP2;P2;SDS_P1;SDS_P2;PMS_P1;PMS_P2;Temp;Humidity;BMP_temperature;BMP_pressure;BME280_temperature;BME280_humidity;BME280_pressure;Samples;Min_cycle;Max_cycle;Signal;HPM_P1;HPM_P2
2021/09/17 00:01:26;;;;;;;2.80;1.70;;;;;;;28.59;38.04;96760.75;4977101;28;20022;-26
2021/09/17 00:03:51;;;;;;;1.90;1.58;;;;;;;28.58;37.96;96751.16;4959832;28;20277;-30
2021/09/17 00:06:17;;;;;;;4.75;1.60;;;;;;;28.59;38.10;96747.56;4977560;28;20126;-29
2021/09/17 00:08:42;;;;;;;1.80;1.48;;;;;;;28.59;38.02;96757.25;4959933;28;20018;-29
2021/09/17 00:11:08;;;;;;;1.60;1.50;;;;;;;28.59;37.89;96754.63;4979494;28;20121;-29
2021/09/17 00:13:36;;;;;;;2.13;1.60;;;;;;;28.58;37.89;96751.16;4957609;28;20076;-31
2021/09/17 00:16:02;;;;;;;1.70;1.40;;;;;;;28.59;38.10;96755.47;4980241;28;20117;-30
2021/09/17 00:18:28;;;;;;;5.60;1.50;;;;;;;28.59;38.00;96758.13;4982508;28;20113;-28
2021/09/17 00:20:53;;;;;;;1.90;1.50;;;;;;;28.59;38.01;96752.84;4979635;28;20028;-28
2021/09/17 00:23:19;;;;;;;1.92;1.40;;;;;;;28.59;38.07;96757.25;4963284;28;20473;-28
2021/09/17 00:25:44;;;;;;;1.67;1.40;;;;;;;28.59;38.11;96760.75;4980468;28;20018;-30
2021/09/17 00:28:09;;;;;;;9.57;1.80;;;;;;;28.58;37.92;96761.69;4976924;28;20025;-28
2021/09/17 00:30:35;;;;;;;1.77;1.48;;;;;;;28.58;37.93;96751.16;4976593;28;20034;-29
2021/09/17 00:33:00;;;;;;;2.15;1.60;;;;;;;28.58;37.96;96751.16;4977507;28;20033;-28
2021/09/17 00:35:26;;;;;;;3.30;1.65;;;;;;;28.58;38.11;96751.16;4977247;28;20080;-35
2021/09/17 00:37:51;;;;;;;3.17;1.80;;;;;;;28.58;37.93;96745.88;4972822;28;20092;-27
2021/09/17 00:40:17;;;;;;;2.88;1.67;;;;;;;28.57;38.12;96744.19;4976121;28;20385;-28
2021/09/17 00:42:42;;;;;;;2.78;1.70;;;;;;;28.58;38.27;96745.88;4978400;28;20049;-30
2021/09/17 00:45:09;;;;;;;2.03;1.48;;;;;;;28.59;38.06;96742.28;4976418;28;20723;-31
2021/09/17 00:47:35;;;;;;;1.67;1.40;;;;;;;28.58;38.00;96740.63;4961918;28;20022;-28
2021/09/17 00:50:00;;;;;;;1.63;1.40;;;;;;;28.58;38.21;96740.63;4976904;28;20030;-28
2021/09/17 00:52:26;;;;;;;1.65;1.50;;;;;;;28.58;37.87;96745.88;4975499;28;20203;-29
2021/09/17 00:54:51;;;;;;;2.85;1.27;;;;;;;28.57;37.88;96733.66;4977114;28;20050;-29
2021/09/17 00:57:17;;;;;;;2.28;1.50;;;;;;;28.58;38.00;96737.97;4957087;28;20034;-29
2021/09/17 00:59:42;;;;;;;2.75;1.45;;;;;;;28.58;37.91;96740.63;4976673;28;20314;-31
2021/09/17 01:02:07;;;;;;;2.90;1.48;;;;;;;28.58;38.20;96737.97;4942573;28;20030;-32
2021/09/17 01:04:33;;;;;;;6.10;1.60;;;;;;;28.59;38.16;96736.16;4978243;28;20030;-29
2021/09/17 01:06:58;;;;;;;1.58;1.25;;;;;;;28.58;38.22;96732.69;4954340;28;20029;-30
2021/09/17 01:09:24;;;;;;;3.00;1.50;;;;;;;28.58;38.08;96735.34;4979972;28;20029;-29
2021/09/17 01:11:50;;;;;;;1.55;1.38;;;;;;;28.58;38.15;96730.06;4959388;28;20572;-28
2021/09/17 01:14:15;;;;;;;1.60;1.50;;;;;;;28.57;37.96;96728.38;4992420;28;20034;-30
2021/09/17 01:16:41;;;;;;;1.50;1.40;;;;;;;28.57;38.12;96733.66;4976655;28;20037;-30
2021/09/17 01:19:06;;;;;;;2.35;1.67;;;;;;;28.57;38.06;96720.47;4980274;28;20705;-27
2021/09/17 01:21:32;;;;;;;1.83;1.40;;;;;;;28.57;37.93;96723.09;4956795;28;20018;-31
2021/09/17 01:23:57;;;;;;;2.05;1.40;;;;;;;28.56;37.93;96719.63;4977517;28;20489;-29
2021/09/17 01:26:22;;;;;;;2.10;1.58;;;;;;;28.57;38.03;96723.09;4978404;28;20456;-29
2021/09/17 01:28:48;;;;;;;2.08;1.48;;;;;;;28.58;38.20;96723.94;4977540;28;20932;-29
2021/09/17 01:31:13;;;;;;;2.45;1.48;;;;;;;28.58;38.21;96722.16;4991783;28;20026;-29
2021/09/17 01:33:39;;;;;;;2.55;1.27;;;;;;;28.58;38.27;96718.66;4979227;28;20129;-27
2021/09/17 01:36:06;;;;;;;2.58;1.40;;;;;;;28.57;38.10;96717.84;4982936;28;20030;-29
2021/09/17 01:38:32;;;;;;;1.67;1.38;;;;;;;28.55;38.08;96704.75;4990930;28;20556;-29
2021/09/17 01:40:58;;;;;;;2.47;1.48;;;;;;;28.57;38.02;96707.28;4978083;28;20172;-30
2021/09/17 01:43:24;;;;;;;1.83;1.23;;;;;;;28.56;38.13;96711.72;4971658;28;20042;-30
2021/09/17 01:45:49;;;;;;;2.85;1.30;;;;;;;28.57;38.11;96707.28;4979628;28;20061;-30
2021/09/17 01:48:15;;;;;;;1.73;1.30;;;;;;;28.58;38.12;96708.13;4976656;28;20022;-27
2021/09/17 01:50:40;;;;;;;3.35;1.52;;;;;;;28.56;38.13;96700.31;4974553;28;20029;-29
2021/09/17 01:53:06;;;;;;;1.85;1.50;;;;;;;28.56;38.08;96708.22;4980080;28;20049;-27
2021/09/17 01:55:31;;;;;;;1.98;1.33;;;;;;;28.56;38.11;96703.81;4964347;28;20018;-29
2021/09/17 01:57:57;;;;;;;1.63;1.40;;;;;;;28.55;38.16;96695.97;4974703;28;20069;-29
2021/09/17 02:00:22;;;;;;;1.70;1.10;;;;;;;28.55;38.19;96694.22;4974185;28;20033;-29
2021/09/17 02:02:48;;;;;;;1.30;1.20;;;;;;;28.57;37.97;96696.75;4977551;28;20034;-33
2021/09/17 02:05:13;;;;;;;1.48;1.38;;;;;;;28.57;37.97;96694.09;4977295;28;20084;-30
2021/09/17 02:07:39;;;;;;;1.65;1.33;;;;;;;28.54;38.08;96681.94;4979475;28;20259;-28
2021/09/17 02:10:05;;;;;;;1.40;1.30;;;;;;;28.56;38.22;96689.75;4977278;28;20034;-29
2021/09/17 02:12:31;;;;;;;2.80;1.27;;;;;;;28.56;38.21;96687.13;4974927;28;20060;-28
2021/09/17 02:14:56;;;;;;;1.52;1.40;;;;;;;28.55;38.18;96688.06;4976831;28;20034;-28
2021/09/17 02:17:23;;;;;;;1.42;1.30;;;;;;;28.55;38.16;96688.06;4973652;28;20034;-30
2021/09/17 02:19:48;;;;;;;2.88;1.30;;;;;;;28.55;38.31;96680.16;4981244;28;20133;-29
2021/09/17 02:22:14;;;;;;;1.95;1.35;;;;;;;28.55;38.13;96683.66;4977455;28;20033;-30
2021/09/17 02:24:39;;;;;;;2.28;1.42;;;;;;;28.55;38.05;96685.44;4982192;28;20026;-30
2021/09/17 02:27:05;;;;;;;0.98;0.98;;;;;;;28.55;37.96;96690.72;4975873;28;20436;-31
2021/09/17 02:29:30;;;;;;;1.92;1.23;;;;;;;28.55;38.05;96688.06;4978439;28;20112;-28
2021/09/17 02:31:56;;;;;;;1.83;1.20;;;;;;;28.54;38.35;96684.59;4980678;28;20405;-29
2021/09/17 02:34:21;;;;;;;1.20;1.10;;;;;;;28.55;38.17;96688.94;4980825;28;20037;-29
2021/09/17 02:36:46;;;;;;;2.40;1.20;;;;;;;28.56;38.06;96695.03;4972363;28;20045;-31
2021/09/17 02:39:14;;;;;;;1.80;1.30;;;;;;;28.55;38.21;96682.81;4978914;28;20046;-28
2021/09/17 02:41:39;;;;;;;1.25;1.15;;;;;;;28.52;38.31;96683.00;4978705;28;20034;-29
2021/09/17 02:44:04;;;;;;;1.52;1.42;;;;;;;28.54;38.13;96684.59;4980130;28;20027;-29
2021/09/17 02:46:30;;;;;;;1.30;1.20;;;;;;;28.54;38.31;96678.50;4974147;28;20053;-28
2021/09/17 02:48:55;;;;;;;2.00;1.20;;;;;;;28.53;38.08;96685.53;4983706;28;20030;-29
2021/09/17 02:51:21;;;;;;;1.20;1.10;;;;;;;28.54;38.18;96681.13;4978837;28;20045;-30
2021/09/17 02:53:46;;;;;;;1.38;1.25;;;;;;;28.55;38.30;96672.25;4974067;28;20726;-28
2021/09/17 02:56:11;;;;;;;1.30;1.20;;;;;;;28.54;38.19;96673.22;4978464;28;20041;-32
2021/09/17 02:58:37;;;;;;;1.45;1.33;;;;;;;28.54;38.21;96678.50;4974800;28;20058;-32
2021/09/17 03:01:03;;;;;;;1.38;1.27;;;;;;;28.54;38.33;96667.94;4977776;28;20027;-33
2021/09/17 03:03:29;;;;;;;1.65;1.20;;;;;;;28.54;38.07;96670.56;4973997;28;20042;-27
2021/09/17 03:05:54;;;;;;;1.40;1.30;;;;;;;28.54;38.30;96667.94;4979763;28;20026;-29
2021/09/17 03:08:20;;;;;;;1.95;1.23;;;;;;;28.54;38.06;96667.94;4967076;28;21963;-29
2021/09/17 03:10:45;;;;;;;2.38;1.40;;;;;;;28.54;38.13;96673.22;4969077;28;20026;-29
2021/09/17 03:13:11;;;;;;;1.50;1.20;;;;;;;28.53;38.27;96661.00;4977856;28;20030;-31
2021/09/17 03:15:36;;;;;;;2.40;1.30;;;;;;;28.53;38.27;96666.25;4984584;28;20485;-28
2021/09/17 03:18:01;;;;;;;1.60;1.17;;;;;;;28.52;38.26;96667.19;4976884;28;20041;-29
2021/09/17 03:20:27;;;;;;;1.30;1.20;;;;;;;28.54;38.21;96665.31;4980438;28;20097;-28
2021/09/17 03:22:52;;;;;;;2.03;1.25;;;;;;;28.53;38.05;96658.34;4978290;28;21052;-30
2021/09/17 03:25:18;;;;;;;1.63;1.20;;;;;;;28.53;38.18;96658.34;4977965;28;20030;-28
2021/09/17 03:27:43;;;;;;;3.10;1.50;;;;;;;28.53;38.33;96659.19;4978736;28;20022;-30
2021/09/17 03:30:09;;;;;;;1.48;1.17;;;;;;;28.55;38.34;96661.72;4979392;28;20039;-29
2021/09/17 03:32:35;;;;;;;1.30;1.20;;;;;;;28.53;38.47;96659.19;4979989;28;20064;-29
2021/09/17 03:35:00;;;;;;;3.35;1.38;;;;;;;28.53;38.28;96667.09;4977101;28;20042;-29
2021/09/17 03:37:25;;;;;;;1.73;1.10;;;;;;;28.53;38.38;96663.63;4979249;28;20033;-29
2021/09/17 03:39:51;;;;;;;3.13;1.50;;;;;;;28.53;38.17;96661.00;4977290;28;20046;-31
2021/09/17 03:42:16;;;;;;;2.42;1.20;;;;;;;28.54;38.17;96665.31;4983208;28;20022;-29
2021/09/17 03:44:42;;;;;;;2.08;1.20;;;;;;;28.53;38.20;96663.63;4979879;28;20922;-28
2021/09/17 03:47:07;;;;;;;0.90;0.90;;;;;;;28.52;38.15;96656.63;4981127;28;20037;-29
2021/09/17 03:49:32;;;;;;;1.50;1.35;;;;;;;28.52;38.20;96662.78;4979246;28;20081;-28
2021/09/17 03:51:58;;;;;;;3.03;1.30;;;;;;;28.53;38.37;96663.63;4981667;28;20786;-29
2021/09/17 03:54:27;;;;;;;1.33;1.10;;;;;;;28.52;38.15;96656.63;4980861;28;20733;-28
2021/09/17 03:56:56;;;;;;;3.05;1.25;;;;;;;28.52;38.15;96661.91;4983529;28;20030;-29
2021/09/17 03:59:21;;;;;;;1.30;1.17;;;;;;;28.52;38.29;96656.63;4976491;28;20092;-31
2021/09/17 04:01:47;;;;;;;1.20;0.98;;;;;;;28.53;38.31;96658.34;4978157;28;20696;-29
2021/09/17 04:04:13;;;;;;;1.38;1.27;;;;;;;28.48;38.14;96649.88;4979024;28;20644;-29
2021/09/17 04:06:38;;;;;;;1.05;0.98;;;;;;;28.51;38.12;96650.53;4975556;28;20034;-29
2021/09/17 04:09:04;;;;;;;3.33;1.17;;;;;;;28.52;38.18;96648.72;4981698;28;20022;-30
2021/09/17 04:11:29;;;;;;;1.00;0.93;;;;;;;28.51;38.22;96645.28;4975667;28;20019;-29
2021/09/17 04:13:54;;;;;;;2.75;1.20;;;;;;;28.51;38.34;96647.06;4978567;28;20679;-29
2021/09/17 04:16:20;;;;;;;0.70;0.70;;;;;;;28.51;38.26;96644.41;4984241;28;20037;-29
2021/09/17 04:18:45;;;;;;;1.15;1.10;;;;;;;28.52;38.02;96643.47;4979132;28;20022;-27
2021/09/17 04:21:10;;;;;;;1.27;1.00;;;;;;;28.51;38.19;96644.41;4971018;28;20034;-31
2021/09/17 04:23:36;;;;;;;2.28;1.23;;;;;;;28.51;38.19;96644.41;4979857;28;20029;-30
2021/09/17 04:26:02;;;;;;;2.35;0.90;;;;;;;28.52;38.11;96646.09;4981639;28;20049;-28
2021/09/17 04:28:27;;;;;;;1.58;1.20;;;;;;;28.51;38.33;96649.69;4982036;28;20033;-29
2021/09/17 04:30:53;;;;;;;1.65;1.23;;;;;;;28.50;38.29;96653.28;4975276;28;20037;-29
2021/09/17 04:33:18;;;;;;;1.83;1.00;;;;;;;28.50;38.17;96654.13;4982570;28;20153;-28
2021/09/17 04:35:44;;;;;;;0.90;0.90;;;;;;;28.51;38.36;96654.97;4975783;28;20114;-27
2021/09/17 04:38:12;;;;;;;2.22;1.20;;;;;;;28.51;38.27;96654.97;4976257;28;20041;-30
2021/09/17 04:40:37;;;;;;;1.23;1.00;;;;;;;28.49;38.28;96657.69;4971954;28;20073;-33
2021/09/17 04:43:03;;;;;;;0.90;0.90;;;;;;;28.50;38.38;96663.81;4974586;28;20042;-30
2021/09/17 04:45:28;;;;;;;1.20;1.10;;;;;;;28.49;38.28;96657.69;4981548;28;20022;-28
2021/09/17 04:47:53;;;;;;;2.05;1.10;;;;;;;28.49;38.46;96664.78;4981559;28;20030;-29
2021/09/17 04:50:19;;;;;;;1.95;1.10;;;;;;;28.51;38.23;96668.13;4973870;28;20038;-31
2021/09/17 04:52:45;;;;;;;1.08;0.98;;;;;;;28.51;38.38;96665.50;4975720;28;20769;-30
2021/09/17 04:55:10;;;;;;;1.23;0.95;;;;;;;28.51;38.26;96662.88;4975469;28;20021;-29
2021/09/17 04:57:36;;;;;;;1.10;1.00;;;;;;;28.49;38.39;96668.22;4976168;28;20458;-29
2021/09/17 05:00:04;;;;;;;1.33;1.13;;;;;;;28.49;38.08;96668.22;4982495;28;20021;-30
2021/09/17 05:02:29;;;;;;;1.42;1.10;;;;;;;28.49;38.14;96667.41;4977435;28;23261;-29
2021/09/17 05:04:55;;;;;;;1.40;1.10;;;;;;;28.50;38.18;96669.09;4974343;28;20022;-30
2021/09/17 05:07:20;;;;;;;1.08;0.93;;;;;;;28.49;38.32;96672.69;4973497;28;20022;-28
2021/09/17 05:09:45;;;;;;;0.85;0.80;;;;;;;28.50;38.34;96669.09;4984353;28;20030;-33
2021/09/17 05:12:11;;;;;;;2.08;1.00;;;;;;;28.49;38.34;96677.94;4984480;28;20645;-29
2021/09/17 05:14:36;;;;;;;1.00;0.88;;;;;;;28.49;38.14;96677.94;4981997;28;20038;-29
2021/09/17 05:17:01;;;;;;;1.48;0.93;;;;;;;28.48;38.19;96674.47;4990925;28;20026;-29
2021/09/17 05:19:27;;;;;;;1.80;1.20;;;;;;;28.48;38.36;96670.97;4979030;28;20460;-29
2021/09/17 05:21:53;;;;;;;1.23;1.13;;;;;;;28.48;38.21;96676.25;4979521;28;20497;-29
2021/09/17 05:24:18;;;;;;;1.02;1.00;;;;;;;28.48;38.36;96669.19;4972981;28;20034;-30
2021/09/17 05:26:44;;;;;;;2.30;1.17;;;;;;;28.48;38.28;96671.81;4980221;28;20061;-28
2021/09/17 05:29:09;;;;;;;4.10;1.40;;;;;;;28.48;38.13;96676.25;4983248;28;20073;-27
2021/09/17 05:31:35;;;;;;;1.50;1.00;;;;;;;28.48;38.28;96685.00;4973223;28;20069;-29
2021/09/17 05:34:00;;;;;;;1.23;1.00;;;;;;;28.47;38.40;96671.91;4976704;28;20038;-29
2021/09/17 05:36:25;;;;;;;1.15;1.05;;;;;;;28.48;38.26;96678.88;4977021;28;20089;-26
2021/09/17 05:38:51;;;;;;;1.30;0.90;;;;;;;28.48;38.37;96681.50;4982914;28;20977;-30
2021/09/17 05:41:16;;;;;;;2.65;1.20;;;;;;;28.47;38.12;96685.09;4977902;28;20045;-30
2021/09/17 05:43:42;;;;;;;1.10;1.00;;;;;;;28.47;38.41;96685.97;4981382;28;20030;-31
2021/09/17 05:46:07;;;;;;;1.73;1.02;;;;;;;28.47;38.40;96679.84;4978393;28;20104;-31
2021/09/17 05:48:32;;;;;;;1.90;1.08;;;;;;;28.47;38.21;96690.38;4980402;28;20030;-30
2021/09/17 05:50:58;;;;;;;0.90;0.90;;;;;;;28.48;38.37;96689.41;4982559;28;20093;-30
2021/09/17 05:53:23;;;;;;;1.13;0.90;;;;;;;28.47;38.29;96680.69;4973972;28;20041;-29
2021/09/17 05:55:49;;;;;;;2.05;1.00;;;;;;;28.48;38.40;96684.16;4985286;28;20649;-29
2021/09/17 05:58:14;;;;;;;1.48;1.08;;;;;;;28.47;38.30;96685.09;4990758;28;20030;-28
2021/09/17 06:00:40;;;;;;;1.20;1.02;;;;;;;28.47;38.37;96682.47;4979151;28;20412;-28
2021/09/17 06:03:05;;;;;;;4.15;0.90;;;;;;;28.46;38.38;96678.16;4970870;28;20030;-31
2021/09/17 06:05:31;;;;;;;1.13;0.90;;;;;;;28.46;38.33;96683.41;4971674;28;20187;-29
2021/09/17 06:07:56;;;;;;;1.35;1.05;;;;;;;28.47;38.34;96679.84;4969487;28;20062;-29
2021/09/17 06:10:21;;;;;;;3.35;1.20;;;;;;;28.46;38.44;96678.16;4978128;28;20025;-30
2021/09/17 06:12:47;;;;;;;1.00;1.00;;;;;;;28.45;38.46;96685.19;4979223;28;20444;-29
2021/09/17 06:15:13;;;;;;;1.85;1.02;;;;;;;28.46;38.35;96678.16;4979654;28;20041;-27
2021/09/17 06:17:40;;;;;;;1.70;1.20;;;;;;;28.45;38.38;96681.75;4982044;28;20026;-29
2021/09/17 06:20:07;;;;;;;1.85;0.98;;;;;;;28.46;38.37;96673.72;4972688;28;22296;-30
2021/09/17 06:22:33;;;;;;;0.93;0.82;;;;;;;28.46;38.45;96679.00;4981784;28;20022;-27
2021/09/17 06:24:58;;;;;;;1.10;1.00;;;;;;;28.46;38.42;96689.53;4975071;28;20659;-28
2021/09/17 06:27:23;;;;;;;1.38;0.90;;;;;;;28.47;38.26;96685.09;4977117;28;20026;-29
2021/09/17 06:29:49;;;;;;;1.52;1.05;;;;;;;28.46;38.33;96683.41;4976242;28;20041;-28
2021/09/17 06:32:14;;;;;;;4.50;1.38;;;;;;;28.47;38.40;96685.97;4960413;28;20334;-30
2021/09/17 06:34:40;;;;;;;2.35;1.20;;;;;;;28.42;38.48;96683.63;4973559;28;20881;-31
2021/09/17 06:37:05;;;;;;;2.20;1.23;;;;;;;28.46;38.35;96680.78;4979300;28;20042;-29
2021/09/17 06:39:32;;;;;;;6.43;1.40;;;;;;;28.46;38.01;96678.16;4974246;28;20049;-30
2021/09/17 06:41:59;;;;;;;6.05;1.45;;;;;;;28.43;38.18;96680.06;4973248;28;20030;-27
2021/09/17 06:44:25;;;;;;;4.60;1.50;;;;;;;28.45;38.08;96687.00;4956017;28;20755;-28
2021/09/17 06:46:50;;;;;;;2.45;1.80;;;;;;;28.43;37.90;96674.78;4976959;28;20035;-29
2021/09/17 06:49:15;;;;;;;4.78;2.15;;;;;;;28.43;37.95;96685.31;4973225;28;20057;-32
2021/09/17 06:51:41;;;;;;;4.90;2.72;;;;;;;28.41;37.43;96676.66;4975669;28;20034;-31
2021/09/17 06:54:06;;;;;;;4.50;2.55;;;;;;;28.40;36.91;96685.53;4977417;28;20484;-32
2021/09/17 06:56:32;;;;;;;4.55;2.53;;;;;;;28.37;36.89;96677.81;4977905;28;20679;-31
2021/09/17 06:58:57;;;;;;;5.78;2.47;;;;;;;28.34;36.58;96679.81;4975389;28;20537;-32
2021/09/17 07:01:25;;;;;;;7.75;3.30;;;;;;;28.32;36.57;96679.91;4960811;28;20500;-29
2021/09/17 07:03:50;;;;;;;3.17;2.70;;;;;;;28.29;36.38;96674.81;4978091;28;20113;-28
2021/09/17 07:06:16;;;;;;;8.05;3.05;;;;;;;28.27;36.07;96674.91;4978142;28;20044;-27
2021/09/17 07:08:41;;;;;;;3.63;2.53;;;;;;;28.26;35.97;96677.69;4962708;28;20029;-29
2021/09/17 07:11:07;;;;;;;4.93;3.08;;;;;;;28.22;36.06;96678.78;4981373;28;20293;-28
2021/09/17 07:13:32;;;;;;;5.88;2.78;;;;;;;28.20;36.03;96681.53;4960573;28;20069;-27
2021/09/17 07:15:57;;;;;;;4.55;2.75;;;;;;;28.17;35.87;96679.94;4981881;28;20034;-29
2021/09/17 07:18:23;;;;;;;3.38;2.45;;;;;;;28.17;35.74;96679.94;4979710;28;20034;-27
2021/09/17 07:20:50;;;;;;;5.32;2.90;;;;;;;28.15;35.66;96683.63;4963575;28;20041;-28
2021/09/17 07:23:15;;;;;;;6.53;2.40;;;;;;;28.14;35.72;96687.16;4981778;28;20038;-29
2021/09/17 07:25:41;;;;;;;4.15;2.75;;;;;;;28.12;35.58;96682.03;4982924;28;20055;-28
2021/09/17 07:28:06;;;;;;;4.28;2.80;;;;;;;28.11;35.46;96682.94;4943821;28;20080;-28
2021/09/17 07:30:32;;;;;;;5.68;2.80;;;;;;;28.10;35.43;96678.63;4979391;28;20026;-28
2021/09/17 07:32:57;;;;;;;4.07;2.70;;;;;;;28.10;35.42;96677.81;4978630;28;20495;-28
2021/09/17 07:35:23;;;;;;;3.75;2.55;;;;;;;28.08;35.56;96679.66;4976835;28;20033;-28
2021/09/17 07:37:49;;;;;;;3.58;2.63;;;;;;;28.08;35.42;96679.66;4976244;28;20058;-32
2021/09/17 07:40:14;;;;;;;4.85;3.30;;;;;;;28.06;35.38;96678.94;4975533;28;21020;-28
2021/09/17 07:42:45;;;;;;;4.82;2.85;;;;;;;28.06;35.50;96678.94;4977372;28;20627;-30
2021/09/17 07:45:11;;;;;;;3.83;3.20;;;;;;;28.04;35.53;96682.50;4976735;28;20034;-28
2021/09/17 07:47:36;;;;;;;4.07;3.25;;;;;;;28.04;35.50;96681.66;4978802;28;20092;-30
2021/09/17 07:50:03;;;;;;;7.15;3.55;;;;;;;28.02;35.42;96679.13;4976960;28;20141;-30
2021/09/17 07:52:29;;;;;;;6.47;3.60;;;;;;;28.01;35.16;96684.50;4959315;28;20551;-30
2021/09/17 07:54:54;;;;;;;7.38;3.47;;;;;;;27.99;35.38;96686.41;4978053;28;20112;-28
2021/09/17 07:57:19;;;;;;;8.23;3.90;;;;;;;27.97;35.18;96683.00;4977606;28;20034;-26
2021/09/17 07:59:45;;;;;;;6.32;3.80;;;;;;;27.95;35.35;96679.63;4961873;28;20030;-29
2021/09/17 08:02:10;;;;;;;6.25;3.90;;;;;;;27.92;35.22;96680.66;4975340;28;20050;-29
2021/09/17 08:04:38;;;;;;;5.68;3.50;;;;;;;27.90;35.16;96678.13;4960573;28;20034;-28
2021/09/17 08:07:05;;;;;;;8.45;5.25;;;;;;;27.90;35.29;96678.13;4961568;28;20125;-28
2021/09/17 08:09:31;;;;;;;11.82;6.10;;;;;;;27.85;35.01;96677.59;4977342;28;20125;-29
2021/09/17 08:11:56;;;;;;;11.60;6.95;;;;;;;27.81;34.47;96677.88;4977972;28;20038;-28
2021/09/17 08:14:22;;;;;;;18.00;7.45;;;;;;;27.70;34.05;96676.75;4975560;28;20034;-29
2021/09/17 08:16:47;;;;;;;12.70;7.63;;;;;;;27.60;33.80;96671.19;4978984;28;20030;-32
2021/09/17 08:19:13;;;;;;;18.42;7.90;;;;;;;27.52;34.10;96673.44;4977087;28;20034;-30
2021/09/17 08:21:41;;;;;;;14.55;8.05;;;;;;;27.44;34.37;96679.19;4978591;28;20030;-28
2021/09/17 08:24:13;;;;;;;11.85;7.85;;;;;;;27.36;34.25;96676.19;4977497;28;20026;-26
2021/09/17 08:26:39;;;;;;;14.43;7.72;;;;;;;27.28;34.64;96676.66;4978703;28;20076;-29
2021/09/17 08:29:05;;;;;;;12.70;8.32;;;;;;;27.21;34.65;96678.81;4976459;28;20018;-31
2021/09/17 08:31:30;;;;;;;11.23;7.78;;;;;;;27.15;34.45;96683.63;4978176;28;20037;-30
2021/09/17 08:33:55;;;;;;;14.65;8.80;;;;;;;27.08;34.41;96681.34;4978657;28;20032;-31
2021/09/17 08:36:21;;;;;;;15.15;8.55;;;;;;;27.00;34.54;96680.94;4977076;28;20408;-28
2021/09/17 08:38:46;;;;;;;11.45;8.32;;;;;;;26.93;34.90;96671.72;4975777;28;20038;-31
2021/09/17 08:41:12;;;;;;;9.68;8.30;;;;;;;26.85;35.07;96675.66;4975339;28;20085;-26
2021/09/17 08:43:37;;;;;;;10.63;5.95;;;;;;;26.83;35.35;96680.16;4977247;28;20500;-29
2021/09/17 08:46:03;;;;;;;8.02;4.50;;;;;;;26.84;35.76;96678.34;4986320;28;20641;-30
2021/09/17 08:48:29;;;;;;;11.30;4.00;;;;;;;26.86;35.91;96682.59;4985349;28;20440;-26
2021/09/17 08:50:55;;;;;;;8.38;4.20;;;;;;;26.91;36.07;96679.69;4975091;28;20085;-28
2021/09/17 08:53:21;;;;;;;9.75;4.53;;;;;;;26.95;36.25;96680.38;4975410;28;20396;-28
2021/09/17 08:55:47;;;;;;;14.13;5.28;;;;;;;27.02;36.31;96689.59;4977780;28;20030;-29
2021/09/17 08:58:13;;;;;;;16.58;5.55;;;;;;;27.06;36.44;96685.84;4971176;28;20034;-29
2021/09/17 09:00:39;;;;;;;16.45;5.15;;;;;;;27.11;36.40;96685.56;4977507;28;20602;-27
2021/09/17 09:03:04;;;;;;;44.88;9.60;;;;;;;27.17;36.56;96679.09;4972951;28;20049;-28
2021/09/17 09:05:31;;;;;;;78.07;14.15;;;;;;;27.22;36.55;96685.78;4974950;28;20608;-28
2021/09/17 09:07:57;;;;;;;59.80;12.30;;;;;;;27.27;36.67;96680.25;4974457;28;20100;-29
2021/09/17 09:10:23;;;;;;;37.10;9.55;;;;;;;27.33;36.66;96685.13;4978220;28;20030;-25
2021/09/17 09:12:50;;;;;;;38.47;10.05;;;;;;;27.37;36.75;96681.38;4986654;28;20048;-30
2021/09/17 09:15:21;;;;;;;29.33;8.23;;;;;;;27.43;36.75;96689.81;4986241;28;20061;-28
2021/09/17 09:17:47;;;;;;;;;;;;;;;27.47;36.61;96683.41;4973726;28;20452;-29
2021/09/17 09:20:34;;;;;;;37.78;9.23;;;;;;;27.51;36.64;96677.84;4981788;28;19921;-28
2021/09/17 09:23:13;;;;;;;38.25;8.10;;;;;;;27.54;36.67;96671.59;4986473;28;20132;-31
2021/09/17 09:26:08;;;;;;;32.35;8.48;;;;;;;27.57;36.69;96668.75;4997539;28;20239;-29
2021/09/17 09:28:35;;;;;;;31.63;8.55;;;;;;;27.60;36.80;96671.19;4979939;28;20054;-29
2021/09/17 09:31:08;;;;;;;23.77;8.23;;;;;;;27.64;36.81;96671.88;4980159;28;20034;-31
2021/09/17 09:33:35;;;;;;;32.55;8.50;;;;;;;27.67;36.74;96670.81;4985395;28;20213;-27
2021/09/17 09:36:10;;;;;;;28.25;7.53;;;;;;;27.69;36.76;96674.22;4990069;28;20500;-31
2021/09/17 09:38:54;;;;;;;28.23;8.20;;;;;;;27.73;36.74;96670.47;4980612;28;20748;-27
2021/09/17 09:41:23;;;;;;;22.35;6.60;;;;;;;27.74;36.82;96669.50;4985509;28;20038;-33
2021/09/17 09:43:55;;;;;;;24.58;6.57;;;;;;;27.78;36.91;96673.63;4986363;28;20026;-28
2021/09/17 09:46:29;;;;;;;25.27;7.82;;;;;;;27.80;36.84;96666.47;4983789;28;20033;-28
2021/09/17 09:48:58;;;;;;;17.42;6.45;;;;;;;27.82;36.93;96658.47;4980367;28;20030;-29
2021/09/17 09:51:23;;;;;;;17.63;6.40;;;;;;;27.84;36.98;96662.69;4985785;28;20025;-28
2021/09/17 09:53:50;;;;;;;17.40;6.00;;;;;;;27.85;36.99;96659.16;4986315;28;20647;-34
2021/09/17 09:56:15;;;;;;;18.73;6.00;;;;;;;27.87;37.05;96659.88;4983463;28;20025;-29
2021/09/17 09:58:40;;;;;;;15.50;5.25;;;;;;;27.89;36.93;96655.34;4968700;28;20166;-29
2021/09/17 10:01:09;;;;;;;16.00;5.30;;;;;;;27.92;37.13;96660.44;4965513;28;20030;-29
2021/09/17 10:03:35;;;;;;;18.17;5.32;;;;;;;27.92;37.00;96655.16;4979969;28;20057;-29
2021/09/17 10:06:00;;;;;;;16.27;5.70;;;;;;;27.94;37.01;96662.97;4964901;28;20484;-26
2021/09/17 10:08:25;;;;;;;12.57;5.00;;;;;;;27.95;37.16;96658.56;4953502;28;20022;-29
2021/09/17 10:10:51;;;;;;;14.38;5.20;;;;;;;27.98;37.02;96655.72;4982498;28;20081;-31
2021/09/17 10:13:17;;;;;;;12.73;4.30;;;;;;;27.99;37.19;96649.53;4985316;28;20072;-29
2021/09/17 10:15:43;;;;;;;13.00;4.63;;;;;;;27.97;37.09;96651.38;4966340;28;20060;-28
2021/09/17 10:18:08;;;;;;;13.30;4.60;;;;;;;28.01;37.13;96643.19;4963341;28;20034;-28
2021/09/17 10:20:38;;;;;;;12.20;4.32;;;;;;;28.02;37.05;96650.16;4980727;28;20038;-28
2021/09/17 10:23:23;;;;;;;11.38;4.35;;;;;;;28.03;37.32;96646.56;4986395;28;21391;-27
2021/09/17 10:26:09;;;;;;;13.45;4.60;;;;;;;28.04;37.16;96647.44;4981920;28;20889;-26
2021/09/17 10:28:54;;;;;;;12.57;4.28;;;;;;;28.06;37.36;96645.53;4986520;28;20105;-29
2021/09/17 10:31:20;;;;;;;14.98;4.40;;;;;;;28.07;37.18;96643.75;4985493;28;20070;-29
2021/09/17 10:33:46;;;;;;;8.38;3.63;;;;;;;28.07;37.50;96644.56;4985746;28;20420;-31
2021/09/17 10:36:11;;;;;;;10.13;4.22;;;;;;;28.08;37.23;96638.38;4984182;28;20520;-28
2021/09/17 10:38:37;;;;;;;11.20;4.28;;;;;;;28.09;37.30;96645.34;4986052;28;20033;-30
2021/09/17 10:41:06;;;;;;;10.32;4.13;;;;;;;28.10;37.52;96644.38;4990333;28;20715;-28
2021/09/17 10:43:49;;;;;;;11.18;4.50;;;;;;;28.10;37.26;96644.38;4989119;28;20091;-27
2021/09/17 10:46:21;;;;;;;9.60;3.92;;;;;;;28.12;37.22;96644.28;4983362;28;20033;-28
2021/09/17 10:48:51;;;;;;;13.68;4.00;;;;;;;28.12;37.25;96634.59;4985292;28;20041;-30
2021/09/17 10:51:35;;;;;;;10.57;4.00;;;;;;;28.12;37.31;96634.59;4988663;28;20117;-29
2021/09/17 10:54:23;;;;;;;9.15;3.33;;;;;;;28.13;37.52;96631.03;4991069;28;20092;-32
2021/09/17 10:56:48;;;;;;;7.22;3.50;;;;;;;28.15;37.51;96633.56;4999429;28;20025;-29
2021/09/17 10:59:29;;;;;;;8.93;3.60;;;;;;;28.14;37.45;96630.06;4985935;28;20030;-28
2021/09/17 11:01:59;;;;;;;6.60;3.10;;;;;;;28.15;37.32;96633.56;4985288;28;20445;-27
2021/09/17 11:04:38;;;;;;;7.43;3.30;;;;;;;28.14;37.49;96640.59;4989205;28;20109;-31
2021/09/17 11:07:16;;;;;;;10.65;3.70;;;;;;;28.12;37.56;96631.97;4971734;28;20030;-28
2021/09/17 11:09:48;;;;;;;8.05;3.25;;;;;;;28.16;37.53;96636.09;4985456;28;20021;-28
2021/09/17 11:12:14;;;;;;;10.13;3.92;;;;;;;28.18;37.51;96642.09;4989576;28;20033;-26
2021/09/17 11:14:39;;;;;;;9.88;3.08;;;;;;;28.18;37.50;96639.47;4986165;28;20054;-28
2021/09/17 11:17:05;;;;;;;5.15;2.80;;;;;;;28.19;37.52;96632.41;4993421;28;20034;-28
2021/09/17 11:19:30;;;;;;;13.02;4.03;;;;;;;28.18;37.55;96644.72;4989421;28;20027;-28
2021/09/17 11:21:56;;;;;;;5.75;3.00;;;;;;;28.20;37.59;96641.16;4983370;28;20027;-25
2021/09/17 11:24:25;;;;;;;6.32;3.05;;;;;;;28.20;37.53;96634.09;4971988;28;20042;-28
2021/09/17 11:26:51;;;;;;;6.07;2.85;;;;;;;28.21;37.61;96637.56;4999374;28;20287;-27
2021/09/17 11:29:17;;;;;;;6.72;3.05;;;;;;;28.22;37.68;96628.72;4967858;28;20400;-28